sensor_id;sensor_type;location;lat;lon;timestamp;temperature;humidity
24802;DHT22;12898;50.520;12.152;2022-07-29T00:00:01;13.10;99.90
24802;DHT22;12898;50.520;12.152;2022-07-29T00:02:29;13.10;99.90
24802;DHT22;12898;50.520;12.152;2022-07-29T00:04:54;13.10;99.90
24802;DHT22;12898;50.520;12.152;2022-07-29T00:07:20;13.10;99.90
24802;DHT22;12898;50.520;12.152;2022-07-29T00:09:46;13.00;99.90
24802;DHT22;12898;50.520;12.152;2022-07-29T00:12:12;13.00;99.90
24802;DHT22;12898;50.520;12.152;2022-07-29T00:14:37;13.00;99.90
24802;DHT22;12898;50.520;12.152;2022-07-29T00:17:03;13.10;99.90
24802;DHT22;12898;50.520;12.152;2022-07-29T00:19:29;13.10;99.90
24802;DHT22;12898;50.520;12.152;2022-07-29T00:21:54;13.00;99.90
24802;DHT22;12898;50.520;12.152;2022-07-29T00:24:20;13.00;99.90
24802;DHT22;12898;50.520;12.152;2022-07-29T00:26:46;13.00;99.90
24802;DHT22;12898;50.520;12.152;2022-07-29T00:29:11;13.00;99.90
24802;DHT22;12898;50.520;12.152;2022-07-29T00:31:37;13.00;99.90
24802;DHT22;12898;50.520;12.152;2022-07-29T00:34:03;12.90;99.90
24802;DHT22;12898;50.520;12.152;2022-07-29T00:36:29;12.90;99.90
24802;DHT22;12898;50.520;12.152;2022-07-29T00:38:54;12.90;99.90
24802;DHT22;12898;50.520;12.152;2022-07-29T00:41:20;12.90;99.90
24802;DHT22;12898;50.520;12.152;2022-07-29T00:43:46;12.90;99.90
24802;DHT22;12898;50.520;12.152;2022-07-29T00:46:12;12.90;99.90
24802;DHT22;12898;50.520;12.152;2022-07-29T00:48:38;12.80;99.90
24802;DHT22;12898;50.520;12.152;2022-07-29T00:51:05;12.80;99.90
24802;DHT22;12898;50.520;12.152;2022-07-29T00:53:31;12.80;99.90
24802;DHT22;12898;50.520;12.152;2022-07-29T00:55:57;12.80;99.90
24802;DHT22;12898;50.520;12.152;2022-07-29T00:58:24;12.70;99.90
24802;DHT22;12898;50.520;12.152;2022-07-29T01:00:51;12.70;99.90
24802;DHT22;12898;50.520;12.152;2022-07-29T01:03:17;12.70;99.90
24802;DHT22;12898;50.520;12.152;2022-07-29T01:05:45;12.60;99.90
24802;DHT22;12898;50.520;12.152;2022-07-29T01:08:13;12.60;99.90
24802;DHT22;12898;50.520;12.152;2022-07-29T01:10:40;12.60;99.90
24802;DHT22;12898;50.520;12.152;2022-07-29T01:13:07;12.60;99.90
24802;DHT22;12898;50.520;12.152;2022-07-29T01:15:40;12.50;99.90
24802;DHT22;12898;50.520;12.152;2022-07-29T01:30:38;12.40;99.90
24802;DHT22;12898;50.520;12.152;2022-07-29T01:33:09;12.50;99.90
24802;DHT22;12898;50.520;12.152;2022-07-29T01:35:57;12.50;99.90
24802;DHT22;12898;50.520;12.152;2022-07-29T01:38:25;12.50;99.90
24802;DHT22;12898;50.520;12.152;2022-07-29T01:40:57;12.50;99.90
24802;DHT22;12898;50.520;12.152;2022-07-29T01:43:32;12.50;99.90
24802;DHT22;12898;50.520;12.152;2022-07-29T01:46:06;12.50;99.90
24802;DHT22;12898;50.520;12.152;2022-07-29T01:48:42;12.50;99.90
24802;DHT22;12898;50.520;12.152;2022-07-29T01:51:31;12.50;99.90
24802;DHT22;12898;50.520;12.152;2022-07-29T01:54:10;12.50;99.90
24802;DHT22;12898;50.520;12.152;2022-07-29T01:56:40;12.50;99.90
24802;DHT22;12898;50.520;12.152;2022-07-29T01:59:09;12.40;99.90
24802;DHT22;12898;50.520;12.152;2022-07-29T02:01:36;12.40;99.90
24802;DHT22;12898;50.520;12.152;2022-07-29T02:04:04;12.40;99.90
24802;DHT22;12898;50.520;12.152;2022-07-29T02:06:32;12.40;99.90
24802;DHT22;12898;50.520;12.152;2022-07-29T02:08:59;12.50;99.90
24802;DHT22;12898;50.520;12.152;2022-07-29T02:11:26;12.50;99.90
24802;DHT22;12898;50.520;12.152;2022-07-29T02:13:54;12.50;99.90
24802;DHT22;12898;50.520;12.152;2022-07-29T02:16:22;12.50;99.90
24802;DHT22;12898;50.520;12.152;2022-07-29T02:18:51;12.50;99.90
24802;DHT22;12898;50.520;12.152;2022-07-29T02:21:23;12.50;99.90
24802;DHT22;12898;50.520;12.152;2022-07-29T02:23:51;12.50;99.90
24802;DHT22;12898;50.520;12.152;2022-07-29T02:26:20;12.50;99.90
24802;DHT22;12898;50.520;12.152;2022-07-29T02:28:48;12.50;99.90
24802;DHT22;12898;50.520;12.152;2022-07-29T02:31:17;12.50;99.90
24802;DHT22;12898;50.520;12.152;2022-07-29T02:33:45;12.50;99.90
24802;DHT22;12898;50.520;12.152;2022-07-29T02:36:12;12.50;99.90
24802;DHT22;12898;50.520;12.152;2022-07-29T02:38:38;12.50;99.90
24802;DHT22;12898;50.520;12.152;2022-07-29T02:41:19;12.50;99.90
24802;DHT22;12898;50.520;12.152;2022-07-29T02:43:47;12.50;99.90
24802;DHT22;12898;50.520;12.152;2022-07-29T02:46:20;12.50;99.90
24802;DHT22;12898;50.520;12.152;2022-07-29T02:49:21;12.40;99.90
24802;DHT22;12898;50.520;12.152;2022-07-29T02:52:07;12.50;99.90
24802;DHT22;12898;50.520;12.152;2022-07-29T02:54:54;12.50;99.90
24802;DHT22;12898;50.520;12.152;2022-07-29T02:57:40;12.50;99.90
24802;DHT22;12898;50.520;12.152;2022-07-29T03:00:09;12.50;99.90
24802;DHT22;12898;50.520;12.152;2022-07-29T03:02:42;12.50;99.90
24802;DHT22;12898;50.520;12.152;2022-07-29T03:05:17;12.50;99.90
24802;DHT22;12898;50.520;12.152;2022-07-29T03:07:47;12.50;99.90
24802;DHT22;12898;50.520;12.152;2022-07-29T03:10:16;12.40;99.90
24802;DHT22;12898;50.520;12.152;2022-07-29T03:12:42;12.40;99.90
24802;DHT22;12898;50.520;12.152;2022-07-29T03:15:09;12.40;99.90
24802;DHT22;12898;50.520;12.152;2022-07-29T03:17:35;12.40;99.90
24802;DHT22;12898;50.520;12.152;2022-07-29T03:20:02;12.40;99.90
24802;DHT22;12898;50.520;12.152;2022-07-29T03:22:29;12.30;99.90
24802;DHT22;12898;50.520;12.152;2022-07-29T03:24:54;12.20;99.90
24802;DHT22;12898;50.520;12.152;2022-07-29T03:27:20;12.20;99.90
24802;DHT22;12898;50.520;12.152;2022-07-29T03:29:46;12.10;99.90
24802;DHT22;12898;50.520;12.152;2022-07-29T03:32:12;12.10;99.90
24802;DHT22;12898;50.520;12.152;2022-07-29T03:34:38;12.00;99.90
24802;DHT22;12898;50.520;12.152;2022-07-29T03:37:04;11.90;99.90
24802;DHT22;12898;50.520;12.152;2022-07-29T03:39:39;11.90;99.90
24802;DHT22;12898;50.520;12.152;2022-07-29T03:42:06;11.90;99.90
24802;DHT22;12898;50.520;12.152;2022-07-29T03:44:34;11.80;99.90
24802;DHT22;12898;50.520;12.152;2022-07-29T03:47:01;11.80;99.90
24802;DHT22;12898;50.520;12.152;2022-07-29T03:49:27;11.80;99.90
24802;DHT22;12898;50.520;12.152;2022-07-29T03:51:54;11.80;99.90
24802;DHT22;12898;50.520;12.152;2022-07-29T03:54:20;11.80;99.90
24802;DHT22;12898;50.520;12.152;2022-07-29T03:56:48;11.80;99.90
24802;DHT22;12898;50.520;12.152;2022-07-29T03:59:16;11.80;99.90
24802;DHT22;12898;50.520;12.152;2022-07-29T04:01:43;11.80;99.90
24802;DHT22;12898;50.520;12.152;2022-07-29T04:04:10;11.80;99.90
24802;DHT22;12898;50.520;12.152;2022-07-29T04:06:44;11.80;99.90
24802;DHT22;12898;50.520;12.152;2022-07-29T04:09:11;11.80;99.90
24802;DHT22;12898;50.520;12.152;2022-07-29T04:11:41;11.80;99.90
24802;DHT22;12898;50.520;12.152;2022-07-29T04:14:07;11.90;99.90
24802;DHT22;12898;50.520;12.152;2022-07-29T04:16:33;11.90;99.90
24802;DHT22;12898;50.520;12.152;2022-07-29T04:18:59;11.90;99.90
24802;DHT22;12898;50.520;12.152;2022-07-29T04:21:25;12.00;99.90
24802;DHT22;12898;50.520;12.152;2022-07-29T04:23:51;12.10;99.90
24802;DHT22;12898;50.520;12.152;2022-07-29T04:26:18;12.20;99.90
24802;DHT22;12898;50.520;12.152;2022-07-29T04:28:44;12.20;99.90
24802;DHT22;12898;50.520;12.152;2022-07-29T04:31:11;12.30;99.90
24802;DHT22;12898;50.520;12.152;2022-07-29T04:33:37;12.40;99.90
24802;DHT22;12898;50.520;12.152;2022-07-29T04:36:04;12.50;99.90
24802;DHT22;12898;50.520;12.152;2022-07-29T04:38:30;12.60;99.90
24802;DHT22;12898;50.520;12.152;2022-07-29T04:40:56;12.80;99.90
24802;DHT22;12898;50.520;12.152;2022-07-29T04:43:21;12.90;99.90
24802;DHT22;12898;50.520;12.152;2022-07-29T04:45:47;13.00;99.90
24802;DHT22;12898;50.520;12.152;2022-07-29T04:48:13;13.10;99.90
24802;DHT22;12898;50.520;12.152;2022-07-29T04:50:39;13.20;99.90
24802;DHT22;12898;50.520;12.152;2022-07-29T04:53:05;13.30;99.90
24802;DHT22;12898;50.520;12.152;2022-07-29T04:55:32;13.30;99.90
24802;DHT22;12898;50.520;12.152;2022-07-29T04:57:58;13.40;99.90
24802;DHT22;12898;50.520;12.152;2022-07-29T05:00:23;13.50;99.90
24802;DHT22;12898;50.520;12.152;2022-07-29T05:02:49;13.60;99.90
24802;DHT22;12898;50.520;12.152;2022-07-29T05:05:18;13.80;99.90
24802;DHT22;12898;50.520;12.152;2022-07-29T05:07:43;13.90;99.90
24802;DHT22;12898;50.520;12.152;2022-07-29T05:10:09;14.10;99.90
24802;DHT22;12898;50.520;12.152;2022-07-29T05:12:35;14.20;99.90
24802;DHT22;12898;50.520;12.152;2022-07-29T05:15:01;14.40;99.90
24802;DHT22;12898;50.520;12.152;2022-07-29T05:17:27;14.40;99.90
24802;DHT22;12898;50.520;12.152;2022-07-29T05:19:52;14.50;99.90
24802;DHT22;12898;50.520;12.152;2022-07-29T05:22:19;14.70;99.90
24802;DHT22;12898;50.520;12.152;2022-07-29T05:24:45;14.80;99.90
24802;DHT22;12898;50.520;12.152;2022-07-29T05:27:11;14.90;99.90
24802;DHT22;12898;50.520;12.152;2022-07-29T05:29:37;15.00;99.90
24802;DHT22;12898;50.520;12.152;2022-07-29T05:32:03;15.10;99.90
24802;DHT22;12898;50.520;12.152;2022-07-29T05:34:29;15.20;99.90
24802;DHT22;12898;50.520;12.152;2022-07-29T05:36:56;15.20;99.90
24802;DHT22;12898;50.520;12.152;2022-07-29T05:39:22;15.20;99.90
24802;DHT22;12898;50.520;12.152;2022-07-29T05:41:48;15.30;99.90
24802;DHT22;12898;50.520;12.152;2022-07-29T05:44:16;15.30;99.90
24802;DHT22;12898;50.520;12.152;2022-07-29T05:46:42;15.40;99.90
24802;DHT22;12898;50.520;12.152;2022-07-29T05:49:08;15.50;99.90
24802;DHT22;12898;50.520;12.152;2022-07-29T05:51:34;15.60;99.90
24802;DHT22;12898;50.520;12.152;2022-07-29T05:54:00;15.70;99.90
24802;DHT22;12898;50.520;12.152;2022-07-29T05:56:27;15.80;99.90
24802;DHT22;12898;50.520;12.152;2022-07-29T05:58:53;15.80;99.90
24802;DHT22;12898;50.520;12.152;2022-07-29T06:01:19;15.90;99.90
24802;DHT22;12898;50.520;12.152;2022-07-29T06:03:44;16.00;99.90
24802;DHT22;12898;50.520;12.152;2022-07-29T06:06:10;16.10;99.90
24802;DHT22;12898;50.520;12.152;2022-07-29T06:08:36;16.20;99.90
24802;DHT22;12898;50.520;12.152;2022-07-29T06:11:03;16.40;99.90
24802;DHT22;12898;50.520;12.152;2022-07-29T06:13:30;16.60;99.90
24802;DHT22;12898;50.520;12.152;2022-07-29T06:15:56;16.70;99.90
24802;DHT22;12898;50.520;12.152;2022-07-29T06:18:22;16.90;99.90
24802;DHT22;12898;50.520;12.152;2022-07-29T06:20:50;17.10;99.10
24802;DHT22;12898;50.520;12.152;2022-07-29T06:23:19;17.20;98.40
24802;DHT22;12898;50.520;12.152;2022-07-29T06:25:45;17.30;98.30
24802;DHT22;12898;50.520;12.152;2022-07-29T06:28:11;17.40;98.10
24802;DHT22;12898;50.520;12.152;2022-07-29T06:30:37;17.50;97.70
24802;DHT22;12898;50.520;12.152;2022-07-29T06:33:04;17.60;97.30
24802;DHT22;12898;50.520;12.152;2022-07-29T06:35:32;17.60;97.10
24802;DHT22;12898;50.520;12.152;2022-07-29T06:38:00;17.60;96.50
24802;DHT22;12898;50.520;12.152;2022-07-29T06:40:26;17.50;95.70
24802;DHT22;12898;50.520;12.152;2022-07-29T06:43:11;17.40;96.70
24802;DHT22;12898;50.520;12.152;2022-07-29T06:45:36;17.40;96.60
24802;DHT22;12898;50.520;12.152;2022-07-29T06:48:04;17.50;95.70
24802;DHT22;12898;50.520;12.152;2022-07-29T06:50:30;17.50;95.00
24802;DHT22;12898;50.520;12.152;2022-07-29T06:52:55;17.60;96.40
24802;DHT22;12898;50.520;12.152;2022-07-29T06:55:24;17.70;95.10
24802;DHT22;12898;50.520;12.152;2022-07-29T06:57:50;17.70;94.30
24802;DHT22;12898;50.520;12.152;2022-07-29T07:00:15;17.80;93.20
24802;DHT22;12898;50.520;12.152;2022-07-29T07:02:41;17.90;94.00
24802;DHT22;12898;50.520;12.152;2022-07-29T07:05:10;18.00;95.40
24802;DHT22;12898;50.520;12.152;2022-07-29T07:07:35;18.00;94.50
24802;DHT22;12898;50.520;12.152;2022-07-29T07:10:01;18.10;91.80
24802;DHT22;12898;50.520;12.152;2022-07-29T07:12:27;18.20;91.70
24802;DHT22;12898;50.520;12.152;2022-07-29T07:14:52;18.40;91.20
24802;DHT22;12898;50.520;12.152;2022-07-29T07:17:18;18.60;87.80
24802;DHT22;12898;50.520;12.152;2022-07-29T07:19:44;18.80;88.80
24802;DHT22;12898;50.520;12.152;2022-07-29T07:22:10;19.20;86.30
24802;DHT22;12898;50.520;12.152;2022-07-29T07:24:36;19.50;83.50
24802;DHT22;12898;50.520;12.152;2022-07-29T07:27:02;19.70;78.80
24802;DHT22;12898;50.520;12.152;2022-07-29T07:29:28;19.70;77.20
24802;DHT22;12898;50.520;12.152;2022-07-29T07:31:53;19.90;74.60
24802;DHT22;12898;50.520;12.152;2022-07-29T07:34:20;20.10;76.50
24802;DHT22;12898;50.520;12.152;2022-07-29T07:36:46;20.60;74.00
24802;DHT22;12898;50.520;12.152;2022-07-29T07:39:11;20.80;72.00
24802;DHT22;12898;50.520;12.152;2022-07-29T07:41:37;21.00;70.50
24802;DHT22;12898;50.520;12.152;2022-07-29T07:44:02;21.20;69.60
24802;DHT22;12898;50.520;12.152;2022-07-29T07:46:28;21.40;69.40
24802;DHT22;12898;50.520;12.152;2022-07-29T07:48:54;21.80;67.80
24802;DHT22;12898;50.520;12.152;2022-07-29T07:51:20;22.20;65.20
24802;DHT22;12898;50.520;12.152;2022-07-29T07:53:45;22.40;63.80
24802;DHT22;12898;50.520;12.152;2022-07-29T07:56:15;22.80;64.00
24802;DHT22;12898;50.520;12.152;2022-07-29T07:58:41;23.30;62.10
24802;DHT22;12898;50.520;12.152;2022-07-29T08:01:08;23.80;59.30
24802;DHT22;12898;50.520;12.152;2022-07-29T08:03:34;24.30;58.30
24802;DHT22;12898;50.520;12.152;2022-07-29T08:06:00;24.70;56.80
24802;DHT22;12898;50.520;12.152;2022-07-29T08:08:26;25.10;56.20
24802;DHT22;12898;50.520;12.152;2022-07-29T08:10:53;25.40;54.10
24802;DHT22;12898;50.520;12.152;2022-07-29T08:13:21;25.50;52.80
24802;DHT22;12898;50.520;12.152;2022-07-29T08:15:49;25.50;52.60
24802;DHT22;12898;50.520;12.152;2022-07-29T08:18:27;25.30;52.20
24802;DHT22;12898;50.520;12.152;2022-07-29T08:20:55;25.10;52.30
24802;DHT22;12898;50.520;12.152;2022-07-29T08:23:21;25.00;53.60
24802;DHT22;12898;50.520;12.152;2022-07-29T08:25:49;25.00;53.00
24802;DHT22;12898;50.520;12.152;2022-07-29T08:28:15;24.90;53.10
24802;DHT22;12898;50.520;12.152;2022-07-29T08:30:41;24.90;54.20
24802;DHT22;12898;50.520;12.152;2022-07-29T08:33:07;25.10;52.60
24802;DHT22;12898;50.520;12.152;2022-07-29T08:35:33;25.30;52.70
24802;DHT22;12898;50.520;12.152;2022-07-29T08:37:58;25.80;52.00
24802;DHT22;12898;50.520;12.152;2022-07-29T08:40:24;26.10;51.20
24802;DHT22;12898;50.520;12.152;2022-07-29T08:42:51;26.50;51.10
24802;DHT22;12898;50.520;12.152;2022-07-29T08:45:17;27.00;50.00
24802;DHT22;12898;50.520;12.152;2022-07-29T08:47:47;27.50;48.20
24802;DHT22;12898;50.520;12.152;2022-07-29T08:50:12;27.80;47.50
24802;DHT22;12898;50.520;12.152;2022-07-29T08:52:40;28.00;47.40
24802;DHT22;12898;50.520;12.152;2022-07-29T08:55:08;28.40;47.90
24802;DHT22;12898;50.520;12.152;2022-07-29T08:57:35;28.80;45.90
24802;DHT22;12898;50.520;12.152;2022-07-29T09:00:03;28.90;45.90
24802;DHT22;12898;50.520;12.152;2022-07-29T09:02:38;28.90;45.70
24802;DHT22;12898;50.520;12.152;2022-07-29T09:05:06;29.20;45.10
24802;DHT22;12898;50.520;12.152;2022-07-29T09:07:32;29.20;43.30
24802;DHT22;12898;50.520;12.152;2022-07-29T09:09:58;29.20;44.50
24802;DHT22;12898;50.520;12.152;2022-07-29T09:12:25;29.80;43.50
24802;DHT22;12898;50.520;12.152;2022-07-29T09:14:51;30.30;43.40
24802;DHT22;12898;50.520;12.152;2022-07-29T09:17:16;30.80;42.90
24802;DHT22;12898;50.520;12.152;2022-07-29T09:19:43;30.80;41.70
24802;DHT22;12898;50.520;12.152;2022-07-29T09:22:09;30.80;42.10
24802;DHT22;12898;50.520;12.152;2022-07-29T09:24:38;31.00;40.70
24802;DHT22;12898;50.520;12.152;2022-07-29T09:27:20;30.90;41.30
24802;DHT22;12898;50.520;12.152;2022-07-29T09:30:00;30.80;41.30
24802;DHT22;12898;50.520;12.152;2022-07-29T09:32:27;30.50;42.00
24802;DHT22;12898;50.520;12.152;2022-07-29T09:35:19;30.10;42.10
24802;DHT22;12898;50.520;12.152;2022-07-29T09:37:46;29.90;42.60
24802;DHT22;12898;50.520;12.152;2022-07-29T09:40:17;29.80;42.60
24802;DHT22;12898;50.520;12.152;2022-07-29T09:42:45;29.70;43.50
24802;DHT22;12898;50.520;12.152;2022-07-29T09:45:12;29.80;42.70
24802;DHT22;12898;50.520;12.152;2022-07-29T09:47:45;30.30;43.90
24802;DHT22;12898;50.520;12.152;2022-07-29T09:50:15;30.90;42.40
24802;DHT22;12898;50.520;12.152;2022-07-29T09:52:50;31.50;40.90
24802;DHT22;12898;50.520;12.152;2022-07-29T09:55:17;32.00;40.40
24802;DHT22;12898;50.520;12.152;2022-07-29T09:57:44;32.00;39.20
24802;DHT22;12898;50.520;12.152;2022-07-29T10:00:15;31.50;40.00
24802;DHT22;12898;50.520;12.152;2022-07-29T10:02:46;31.10;40.80
24802;DHT22;12898;50.520;12.152;2022-07-29T10:05:24;30.70;42.00
24802;DHT22;12898;50.520;12.152;2022-07-29T10:07:53;30.60;42.30
24802;DHT22;12898;50.520;12.152;2022-07-29T10:10:28;30.50;41.00
24802;DHT22;12898;50.520;12.152;2022-07-29T10:12:57;30.20;41.90
24802;DHT22;12898;50.520;12.152;2022-07-29T10:15:29;30.10;42.40
24802;DHT22;12898;50.520;12.152;2022-07-29T10:17:56;30.20;42.30
24802;DHT22;12898;50.520;12.152;2022-07-29T10:20:23;30.10;41.90
24802;DHT22;12898;50.520;12.152;2022-07-29T10:22:50;29.70;43.00
24802;DHT22;12898;50.520;12.152;2022-07-29T10:25:17;29.40;44.00
24802;DHT22;12898;50.520;12.152;2022-07-29T10:27:45;29.40;44.40
24802;DHT22;12898;50.520;12.152;2022-07-29T10:30:12;29.60;44.20
24802;DHT22;12898;50.520;12.152;2022-07-29T10:36:10;30.90;43.30
24802;DHT22;12898;50.520;12.152;2022-07-29T10:41:43;31.70;41.00
24802;DHT22;12898;50.520;12.152;2022-07-29T10:44:21;32.00;40.30
24802;DHT22;12898;50.520;12.152;2022-07-29T10:46:48;31.70;39.50
24802;DHT22;12898;50.520;12.152;2022-07-29T10:57:14;31.20;41.70
24802;DHT22;12898;50.520;12.152;2022-07-29T10:59:48;31.30;41.40
24802;DHT22;12898;50.520;12.152;2022-07-29T11:05:14;31.50;41.60
24802;DHT22;12898;50.520;12.152;2022-07-29T11:10:38;31.80;41.30
24802;DHT22;12898;50.520;12.152;2022-07-29T11:13:05;32.00;40.30
24802;DHT22;12898;50.520;12.152;2022-07-29T11:15:54;31.50;40.00
24802;DHT22;12898;50.520;12.152;2022-07-29T11:18:20;31.20;41.10
24802;DHT22;12898;50.520;12.152;2022-07-29T11:20:48;31.50;41.30
24802;DHT22;12898;50.520;12.152;2022-07-29T11:23:18;32.00;40.20
24802;DHT22;12898;50.520;12.152;2022-07-29T11:25:45;32.00;40.10
24802;DHT22;12898;50.520;12.152;2022-07-29T11:28:21;32.20;39.50
24802;DHT22;12898;50.520;12.152;2022-07-29T11:30:52;32.20;39.10
24802;DHT22;12898;50.520;12.152;2022-07-29T11:33:32;32.00;39.80
24802;DHT22;12898;50.520;12.152;2022-07-29T11:36:19;31.90;39.70
24802;DHT22;12898;50.520;12.152;2022-07-29T11:38:44;31.40;40.30
24802;DHT22;12898;50.520;12.152;2022-07-29T11:43:53;31.20;40.50
24802;DHT22;12898;50.520;12.152;2022-07-29T11:46:45;31.20;40.80
24802;DHT22;12898;50.520;12.152;2022-07-29T11:49:20;31.10;40.50
24802;DHT22;12898;50.520;12.152;2022-07-29T11:51:51;31.00;41.00
24802;DHT22;12898;50.520;12.152;2022-07-29T11:54:24;30.90;41.10
24802;DHT22;12898;50.520;12.152;2022-07-29T11:56:52;30.70;41.20
24802;DHT22;12898;50.520;12.152;2022-07-29T11:59:19;30.70;41.50
24802;DHT22;12898;50.520;12.152;2022-07-29T12:01:55;30.80;41.10
24802;DHT22;12898;50.520;12.152;2022-07-29T12:04:22;31.30;40.80
24802;DHT22;12898;50.520;12.152;2022-07-29T12:06:57;31.20;40.20
24802;DHT22;12898;50.520;12.152;2022-07-29T12:09:23;31.30;40.40
24802;DHT22;12898;50.520;12.152;2022-07-29T12:11:49;31.60;41.20
24802;DHT22;12898;50.520;12.152;2022-07-29T12:14:33;32.20;39.20
24802;DHT22;12898;50.520;12.152;2022-07-29T12:17:00;32.60;38.50
24802;DHT22;12898;50.520;12.152;2022-07-29T12:19:28;32.70;38.00
24802;DHT22;12898;50.520;12.152;2022-07-29T12:21:55;32.80;38.10
24802;DHT22;12898;50.520;12.152;2022-07-29T12:24:23;33.30;38.20
24802;DHT22;12898;50.520;12.152;2022-07-29T12:26:54;33.70;37.30
24802;DHT22;12898;50.520;12.152;2022-07-29T12:29:21;34.10;35.70
24802;DHT22;12898;50.520;12.152;2022-07-29T12:31:52;34.40;36.00
24802;DHT22;12898;50.520;12.152;2022-07-29T12:34:20;34.40;35.20
24802;DHT22;12898;50.520;12.152;2022-07-29T12:36:48;33.80;35.50
24802;DHT22;12898;50.520;12.152;2022-07-29T12:39:15;33.10;36.30
24802;DHT22;12898;50.520;12.152;2022-07-29T12:41:42;32.60;37.50
24802;DHT22;12898;50.520;12.152;2022-07-29T12:44:08;32.10;37.80
24802;DHT22;12898;50.520;12.152;2022-07-29T12:46:38;31.70;38.80
24802;DHT22;12898;50.520;12.152;2022-07-29T12:49:04;31.30;39.60
24802;DHT22;12898;50.520;12.152;2022-07-29T12:54:13;30.30;40.60
24802;DHT22;12898;50.520;12.152;2022-07-29T12:56:42;29.90;42.00
24802;DHT22;12898;50.520;12.152;2022-07-29T12:59:17;29.50;42.00
24802;DHT22;12898;50.520;12.152;2022-07-29T13:01:45;29.10;42.90
24802;DHT22;12898;50.520;12.152;2022-07-29T13:04:31;28.50;44.30
24802;DHT22;12898;50.520;12.152;2022-07-29T13:07:03;28.20;45.20
24802;DHT22;12898;50.520;12.152;2022-07-29T13:09:44;28.00;46.30
24802;DHT22;12898;50.520;12.152;2022-07-29T13:12:13;27.60;48.30
24802;DHT22;12898;50.520;12.152;2022-07-29T13:14:44;27.00;49.80
24802;DHT22;12898;50.520;12.152;2022-07-29T13:17:14;26.50;50.90
24802;DHT22;12898;50.520;12.152;2022-07-29T13:19:51;25.90;52.20
24802;DHT22;12898;50.520;12.152;2022-07-29T13:22:22;25.10;54.50
24802;DHT22;12898;50.520;12.152;2022-07-29T13:27:27;24.10;56.80
24802;DHT22;12898;50.520;12.152;2022-07-29T13:29:55;23.80;57.80
24802;DHT22;12898;50.520;12.152;2022-07-29T13:32:24;23.40;60.50
24802;DHT22;12898;50.520;12.152;2022-07-29T13:34:51;23.00;68.10
24802;DHT22;12898;50.520;12.152;2022-07-29T13:37:18;22.30;74.90
24802;DHT22;12898;50.520;12.152;2022-07-29T13:39:44;21.50;92.50
24802;DHT22;12898;50.520;12.152;2022-07-29T13:42:10;21.10;99.90
24802;DHT22;12898;50.520;12.152;2022-07-29T13:44:39;20.60;99.90
24802;DHT22;12898;50.520;12.152;2022-07-29T13:47:06;20.20;99.90
24802;DHT22;12898;50.520;12.152;2022-07-29T13:49:32;20.00;99.90
24802;DHT22;12898;50.520;12.152;2022-07-29T13:51:57;19.80;99.90
24802;DHT22;12898;50.520;12.152;2022-07-29T13:54:23;19.70;99.90
24802;DHT22;12898;50.520;12.152;2022-07-29T13:56:50;19.60;99.90
24802;DHT22;12898;50.520;12.152;2022-07-29T13:59:17;19.50;99.90
24802;DHT22;12898;50.520;12.152;2022-07-29T14:01:43;19.40;99.90
24802;DHT22;12898;50.520;12.152;2022-07-29T14:04:10;19.30;99.90
24802;DHT22;12898;50.520;12.152;2022-07-29T14:06:37;19.20;99.90
24802;DHT22;12898;50.520;12.152;2022-07-29T14:09:04;19.10;99.90
24802;DHT22;12898;50.520;12.152;2022-07-29T14:11:39;19.20;99.90
24802;DHT22;12898;50.520;12.152;2022-07-29T14:14:05;19.30;99.90
24802;DHT22;12898;50.520;12.152;2022-07-29T14:16:30;19.40;99.90
24802;DHT22;12898;50.520;12.152;2022-07-29T14:18:56;19.70;99.90
24802;DHT22;12898;50.520;12.152;2022-07-29T14:21:24;20.10;99.90
24802;DHT22;12898;50.520;12.152;2022-07-29T14:23:49;20.40;99.90
24802;DHT22;12898;50.520;12.152;2022-07-29T14:26:15;20.70;99.90
24802;DHT22;12898;50.520;12.152;2022-07-29T14:28:41;21.00;99.90
24802;DHT22;12898;50.520;12.152;2022-07-29T14:31:09;21.10;99.90
24802;DHT22;12898;50.520;12.152;2022-07-29T14:33:34;21.30;99.90
24802;DHT22;12898;50.520;12.152;2022-07-29T14:36:00;21.50;99.90
24802;DHT22;12898;50.520;12.152;2022-07-29T14:38:26;21.60;99.90
24802;DHT22;12898;50.520;12.152;2022-07-29T14:40:52;21.70;99.90
24802;DHT22;12898;50.520;12.152;2022-07-29T14:43:17;21.90;99.90
24802;DHT22;12898;50.520;12.152;2022-07-29T14:45:43;22.10;99.90
24802;DHT22;12898;50.520;12.152;2022-07-29T14:48:09;22.30;99.90
24802;DHT22;12898;50.520;12.152;2022-07-29T14:50:37;22.50;99.90
24802;DHT22;12898;50.520;12.152;2022-07-29T14:53:03;22.70;99.90
24802;DHT22;12898;50.520;12.152;2022-07-29T14:55:29;22.90;99.90
24802;DHT22;12898;50.520;12.152;2022-07-29T14:57:54;23.20;99.90
24802;DHT22;12898;50.520;12.152;2022-07-29T15:00:20;23.60;99.90
24802;DHT22;12898;50.520;12.152;2022-07-29T15:02:47;24.20;99.90
24802;DHT22;12898;50.520;12.152;2022-07-29T15:05:18;24.70;99.90
24802;DHT22;12898;50.520;12.152;2022-07-29T15:07:44;24.90;99.90
24802;DHT22;12898;50.520;12.152;2022-07-29T15:10:10;24.80;99.90
24802;DHT22;12898;50.520;12.152;2022-07-29T15:12:36;24.60;99.90
24802;DHT22;12898;50.520;12.152;2022-07-29T15:15:01;24.50;99.90
24802;DHT22;12898;50.520;12.152;2022-07-29T15:17:27;24.30;99.90
24802;DHT22;12898;50.520;12.152;2022-07-29T15:19:53;24.00;99.90
24802;DHT22;12898;50.520;12.152;2022-07-29T15:22:18;23.80;99.90
24802;DHT22;12898;50.520;12.152;2022-07-29T15:24:47;23.60;99.90
24802;DHT22;12898;50.520;12.152;2022-07-29T15:27:12;23.40;99.90
24802;DHT22;12898;50.520;12.152;2022-07-29T15:29:43;23.30;99.90
24802;DHT22;12898;50.520;12.152;2022-07-29T15:32:09;23.30;99.90
24802;DHT22;12898;50.520;12.152;2022-07-29T15:34:36;23.50;99.90
24802;DHT22;12898;50.520;12.152;2022-07-29T15:37:05;23.60;99.90
24802;DHT22;12898;50.520;12.152;2022-07-29T15:39:33;23.60;99.90
24802;DHT22;12898;50.520;12.152;2022-07-29T15:42:02;23.60;99.90
24802;DHT22;12898;50.520;12.152;2022-07-29T15:44:28;23.40;99.90
24802;DHT22;12898;50.520;12.152;2022-07-29T15:46:53;23.30;99.90
24802;DHT22;12898;50.520;12.152;2022-07-29T15:49:33;23.10;99.90
24802;DHT22;12898;50.520;12.152;2022-07-29T15:52:01;22.90;99.90
24802;DHT22;12898;50.520;12.152;2022-07-29T15:54:29;22.80;99.90
24802;DHT22;12898;50.520;12.152;2022-07-29T15:56:58;22.90;99.90
24802;DHT22;12898;50.520;12.152;2022-07-29T15:59:27;23.30;99.90
24802;DHT22;12898;50.520;12.152;2022-07-29T16:01:53;23.60;99.90